Time;durP1;ratioP1;P1;durP2;ratioP2;P2;SDS_P1;SDS_P2;PMS_P1;PMS_P2;Temp;Humidity;BMP_temperature;BMP_pressure;BME280_temperature;BME280_humidity;BME280_pressure;Samples;Min_cycle;Max_cycle;Signal;HPM_P1;HPM_P2
2022/07/12 00:01:04;;;;;;;0.82;0.82;;;;;;;;;;10381240;28;20247;-73
2022/07/12 00:06:05;;;;;;;0.55;0.55;;;;;;;;;;10379474;28;20254;-74
2022/07/12 00:11:06;;;;;;;1.88;1.10;;;;;;;;;;10379046;28;20671;-73
2022/07/12 00:16:07;;;;;;;1.40;0.60;;;;;;;;;;10372036;28;20219;-73
2022/07/12 00:21:09;;;;;;;0.80;0.80;;;;;;;;;;10376008;28;20286;-73
2022/07/12 00:26:10;;;;;;;0.90;0.90;;;;;;;;;;10369555;28;20278;-72
2022/07/12 00:31:11;;;;;;;1.30;0.90;;;;;;;;;;10380922;28;20600;-73
2022/07/12 00:36:12;;;;;;;1.33;0.90;;;;;;;;;;10361984;28;20188;-74
2022/07/12 00:41:13;;;;;;;1.85;1.10;;;;;;;;;;10387484;28;20226;-73
2022/07/12 00:46:15;;;;;;;2.22;1.05;;;;;;;;;;10380651;28;20188;-73
2022/07/12 00:51:17;;;;;;;1.27;1.13;;;;;;;;;;10364757;28;20227;-72
2022/07/12 00:56:18;;;;;;;1.15;1.15;;;;;;;;;;10375644;28;20559;-74
2022/07/12 01:01:19;;;;;;;5.10;0.90;;;;;;;;;;10381892;28;20576;-73
2022/07/12 01:06:21;;;;;;;1.17;1.17;;;;;;;;;;10377749;28;20199;-75
2022/07/12 01:11:22;;;;;;;1.65;1.17;;;;;;;;;;10394753;28;20222;-74
2022/07/12 01:16:23;;;;;;;1.45;1.35;;;;;;;;;;10385635;28;20598;-74
2022/07/12 01:21:26;;;;;;;1.00;1.00;;;;;;;;;;10373399;28;20608;-73
2022/07/12 01:26:27;;;;;;;1.10;1.10;;;;;;;;;;10384131;28;20218;-73
2022/07/12 01:31:28;;;;;;;1.50;1.40;;;;;;;;;;10376925;28;20228;-75
2022/07/12 01:36:30;;;;;;;1.50;1.45;;;;;;;;;;10379042;28;20195;-74
2022/07/12 01:41:32;;;;;;;1.70;1.60;;;;;;;;;;10378799;28;20184;-74
2022/07/12 01:46:33;;;;;;;2.17;1.67;;;;;;;;;;10378787;28;20791;-74
2022/07/12 01:51:34;;;;;;;1.67;1.48;;;;;;;;;;10379659;28;20223;-74
2022/07/12 01:56:36;;;;;;;1.60;1.58;;;;;;;;;;10382627;28;20275;-72
2022/07/12 02:01:37;;;;;;;2.00;1.90;;;;;;;;;;10381489;28;20226;-72
2022/07/12 02:06:39;;;;;;;2.28;2.17;;;;;;;;;;10376959;28;20175;-72
2022/07/12 02:11:41;;;;;;;2.30;2.20;;;;;;;;;;10388450;28;20251;-72
2022/07/12 02:16:42;;;;;;;2.42;2.22;;;;;;;;;;10386071;28;20204;-73
2022/07/12 02:21:43;;;;;;;2.58;2.47;;;;;;;;;;10390272;28;20211;-72
2022/07/12 02:26:44;;;;;;;2.63;2.35;;;;;;;;;;10387608;28;20210;-72
2022/07/12 02:31:45;;;;;;;2.50;2.10;;;;;;;;;;10383517;28;20755;-73
2022/07/12 02:36:46;;;;;;;2.13;2.05;;;;;;;;;;10389334;28;20184;-73
2022/07/12 02:41:47;;;;;;;2.60;2.40;;;;;;;;;;10382842;28;20254;-72
2022/07/12 02:46:48;;;;;;;2.35;1.70;;;;;;;;;;10386857;28;20192;-72
2022/07/12 02:51:49;;;;;;;2.08;2.00;;;;;;;;;;10387999;28;20215;-72
2022/07/12 02:56:50;;;;;;;2.28;1.83;;;;;;;;;;10384137;28;20188;-73
2022/07/12 03:01:51;;;;;;;2.08;1.95;;;;;;;;;;10380671;28;20215;-73
2022/07/12 03:06:52;;;;;;;3.42;2.10;;;;;;;;;;10383146;28;20208;-71
2022/07/12 03:11:54;;;;;;;1.98;1.98;;;;;;;;;;10386106;28;20258;-73
2022/07/12 03:16:55;;;;;;;2.15;2.05;;;;;;;;;;10384864;28;20561;-72
2022/07/12 03:21:56;;;;;;;2.10;2.00;;;;;;;;;;10385255;28;20837;-72
2022/07/12 03:26:57;;;;;;;2.33;2.22;;;;;;;;;;10384468;28;20645;-72
2022/07/12 03:31:58;;;;;;;2.17;2.08;;;;;;;;;;10385069;28;20230;-72
2022/07/12 03:36:59;;;;;;;3.03;2.40;;;;;;;;;;10383006;28;20200;-72
2022/07/12 03:42:00;;;;;;;3.00;2.80;;;;;;;;;;10366248;28;20354;-73
2022/07/12 03:47:01;;;;;;;3.28;3.00;;;;;;;;;;10384023;28;20198;-73
2022/07/12 03:52:03;;;;;;;2.42;2.33;;;;;;;;;;10380010;28;20622;-72
2022/07/12 03:57:13;;;;;;;3.05;2.88;;;;;;;;;;10366756;28;20193;-73
2022/07/12 04:02:14;;;;;;;2.83;2.40;;;;;;;;;;10385396;28;20235;-72
2022/07/12 04:07:15;;;;;;;2.80;2.70;;;;;;;;;;10383111;28;20223;-72
2022/07/12 04:12:16;;;;;;;3.47;3.17;;;;;;;;;;10383612;28;20299;-73
2022/07/12 04:17:17;;;;;;;6.47;3.22;;;;;;;;;;10389857;28;20203;-73
2022/07/12 04:22:18;;;;;;;4.05;3.50;;;;;;;;;;10386174;28;20175;-72
2022/07/12 04:27:19;;;;;;;4.63;4.32;;;;;;;;;;10389827;28;20191;-74
2022/07/12 04:32:20;;;;;;;5.57;4.55;;;;;;;;;;10388003;28;20232;-73
2022/07/12 04:37:21;;;;;;;4.97;4.00;;;;;;;;;;10393590;28;20196;-73
2022/07/12 04:42:22;;;;;;;4.40;4.00;;;;;;;;;;10389513;28;20179;-73
2022/07/12 04:47:24;;;;;;;4.55;4.30;;;;;;;;;;10392324;28;20202;-72
2022/07/12 04:52:25;;;;;;;3.97;3.83;;;;;;;;;;10362226;28;20219;-74
2022/07/12 04:57:26;;;;;;;4.10;3.90;;;;;;;;;;10386219;28;20679;-74
2022/07/12 05:02:27;;;;;;;4.10;3.90;;;;;;;;;;10383739;28;20224;-72
2022/07/12 05:07:28;;;;;;;4.63;4.25;;;;;;;;;;10386504;28;20254;-74
2022/07/12 05:12:29;;;;;;;4.53;4.10;;;;;;;;;;10388367;28;20275;-73
2022/07/12 05:17:30;;;;;;;4.47;4.25;;;;;;;;;;10386548;28;20204;-74
2022/07/12 05:22:31;;;;;;;4.20;4.00;;;;;;;;;;10388374;28;20184;-74
2022/07/12 05:27:33;;;;;;;4.93;4.20;;;;;;;;;;10390196;28;20195;-75
2022/07/12 05:32:34;;;;;;;4.30;3.85;;;;;;;;;;10383956;28;20231;-74
2022/07/12 05:37:35;;;;;;;3.22;3.13;;;;;;;;;;10379556;28;20187;-73
2022/07/12 05:42:36;;;;;;;4.53;3.38;;;;;;;;;;10380262;28;20188;-75
2022/07/12 05:47:38;;;;;;;4.13;3.83;;;;;;;;;;10382615;28;20216;-75
2022/07/12 05:57:58;;;;;;;6.03;3.80;;;;;;;;;;10393431;28;21002;-74
2022/07/12 06:02:59;;;;;;;5.00;4.60;;;;;;;;;;10387303;28;20226;-75
2022/07/12 06:08:01;;;;;;;4.32;4.03;;;;;;;;;;10386692;28;20315;-75
2022/07/12 06:13:02;;;;;;;5.10;4.63;;;;;;;;;;10388693;28;20215;-74
2022/07/12 06:18:03;;;;;;;7.38;5.07;;;;;;;;;;10371386;28;20575;-73
2022/07/12 06:23:04;;;;;;;5.78;5.30;;;;;;;;;;10366742;28;20965;-75
2022/07/12 06:28:05;;;;;;;5.90;5.00;;;;;;;;;;10369116;28;20564;-77
2022/07/12 06:33:06;;;;;;;4.88;4.45;;;;;;;;;;10389690;28;20227;-75
2022/07/12 06:38:07;;;;;;;7.07;6.25;;;;;;;;;;10391687;28;20187;-75
2022/07/12 06:43:10;;;;;;;4.43;4.13;;;;;;;;;;10394264;28;20188;-75
2022/07/12 06:48:11;;;;;;;4.97;4.70;;;;;;;;;;10392780;28;20219;-75
2022/07/12 06:53:12;;;;;;;4.80;3.85;;;;;;;;;;10393035;28;20613;-76
2022/07/12 06:58:14;;;;;;;3.50;2.80;;;;;;;;;;10386943;28;20244;-77
2022/07/12 07:03:15;;;;;;;2.92;2.75;;;;;;;;;;10384214;28;20230;-75
2022/07/12 07:08:16;;;;;;;3.33;3.10;;;;;;;;;;10392331;28;20230;-76
2022/07/12 07:13:17;;;;;;;3.28;3.00;;;;;;;;;;10391553;28;20230;-76
2022/07/12 07:18:18;;;;;;;3.42;3.17;;;;;;;;;;10375364;28;20204;-76
2022/07/12 07:23:19;;;;;;;2.58;2.58;;;;;;;;;;10399123;28;20193;-75
2022/07/12 07:28:20;;;;;;;4.72;3.03;;;;;;;;;;10395720;28;20251;-75
2022/07/12 07:33:24;;;;;;;2.55;2.45;;;;;;;;;;10374528;28;20238;-75
2022/07/12 07:38:25;;;;;;;4.20;2.30;;;;;;;;;;10394796;28;20238;-74
2022/07/12 07:43:27;;;;;;;3.15;3.03;;;;;;;;;;10387282;28;20705;-74
2022/07/12 07:48:29;;;;;;;2.83;2.72;;;;;;;;;;10387969;28;20220;-74
2022/07/12 07:53:30;;;;;;;2.85;2.60;;;;;;;;;;10389156;28;20227;-76
2022/07/12 07:58:31;;;;;;;5.07;2.65;;;;;;;;;;10389496;28;20196;-74
2022/07/12 08:03:32;;;;;;;3.95;2.85;;;;;;;;;;10391144;28;20293;-75
2022/07/12 08:08:33;;;;;;;2.83;2.72;;;;;;;;;;10393071;28;20238;-76
2022/07/12 08:13:34;;;;;;;2.00;1.95;;;;;;;;;;10395291;28;20250;-72
2022/07/12 08:18:35;;;;;;;2.10;2.05;;;;;;;;;;10376784;28;21570;-75
2022/07/12 08:23:36;;;;;;;1.92;1.92;;;;;;;;;;10392242;28;20333;-75
2022/07/12 08:28:38;;;;;;;2.58;2.47;;;;;;;;;;10391864;28;20188;-74
2022/07/12 08:33:40;;;;;;;2.55;2.40;;;;;;;;;;10380275;28;20230;-76
2022/07/12 08:38:44;;;;;;;1.70;1.60;;;;;;;;;;10392472;28;20231;-74
2022/07/12 08:43:45;;;;;;;3.63;2.33;;;;;;;;;;10392880;28;20194;-74
2022/07/12 08:48:46;;;;;;;1.73;1.30;;;;;;;;;;10395440;28;20635;-74
2022/07/12 08:53:49;;;;;;;1.55;1.55;;;;;;;;;;10393571;28;20247;-76
2022/07/12 08:58:52;;;;;;;0.93;0.93;;;;;;;;;;10397228;28;20188;-74
2022/07/12 09:04:09;;;;;;;4.78;1.20;;;;;;;;;;10391348;28;20314;-76
2022/07/12 09:09:11;;;;;;;1.13;1.00;;;;;;;;;;10381961;28;20211;-74
2022/07/12 09:14:18;;;;;;;5.05;0.80;;;;;;;;;;10382323;28;20219;-75
2022/07/12 09:19:19;;;;;;;1.52;0.93;;;;;;;;;;10392829;28;20208;-72
2022/07/12 09:24:24;;;;;;;0.80;0.80;;;;;;;;;;10391400;28;20190;-73
2022/07/12 09:29:25;;;;;;;1.40;0.70;;;;;;;;;;10389848;28;20184;-74
2022/07/12 09:39:46;;;;;;;0.38;0.30;;;;;;;;;;10388029;28;20218;-73
2022/07/12 09:44:47;;;;;;;3.42;0.60;;;;;;;;;;10365599;28;20250;-73
2022/07/12 09:49:48;;;;;;;1.48;0.80;;;;;;;;;;10378299;28;20223;-74
2022/07/12 09:54:50;;;;;;;5.20;0.68;;;;;;;;;;10382306;28;20749;-73
2022/07/12 09:59:54;;;;;;;0.70;0.70;;;;;;;;;;10383130;28;20200;-74
2022/07/12 10:04:55;;;;;;;6.00;0.68;;;;;;;;;;10381631;28;20246;-74
2022/07/12 10:09:57;;;;;;;0.98;0.70;;;;;;;;;;10384165;28;20224;-74
2022/07/12 10:15:02;;;;;;;0.90;0.70;;;;;;;;;;10381354;28;20208;-73
2022/07/12 10:20:23;;;;;;;1.08;0.40;;;;;;;;;;10380389;28;20212;-73
2022/07/12 10:25:30;;;;;;;0.40;0.40;;;;;;;;;;10378655;28;20192;-72
2022/07/12 10:30:42;;;;;;;2.50;0.70;;;;;;;;;;10363302;28;20222;-74
2022/07/12 10:36:03;;;;;;;0.40;0.40;;;;;;;;;;10368098;28;20203;-73
2022/07/12 10:41:21;;;;;;;0.50;0.50;;;;;;;;;;10380399;28;20183;-73
2022/07/12 10:46:25;;;;;;;1.00;0.43;;;;;;;;;;10383436;28;20235;-73
2022/07/12 10:51:26;;;;;;;0.60;0.43;;;;;;;;;;10379653;28;20761;-73
2022/07/12 10:56:27;;;;;;;0.45;0.45;;;;;;;;;;10382871;28;20195;-73
2022/07/12 11:01:29;;;;;;;0.40;0.40;;;;;;;;;;10384221;28;20211;-73
2022/07/12 11:06:30;;;;;;;1.00;0.30;;;;;;;;;;10375600;28;20199;-73
2022/07/12 11:11:33;;;;;;;0.70;0.40;;;;;;;;;;10381046;28;20259;-72
2022/07/12 11:16:34;;;;;;;1.75;0.40;;;;;;;;;;10378992;28;20192;-71
2022/07/12 11:21:35;;;;;;;0.30;0.30;;;;;;;;;;10378971;28;20326;-73
2022/07/12 11:26:37;;;;;;;0.30;0.30;;;;;;;;;;10379269;28;20195;-74
2022/07/12 11:31:38;;;;;;;0.30;0.30;;;;;;;;;;10366548;28;20883;-73
2022/07/12 11:36:39;;;;;;;0.30;0.30;;;;;;;;;;10376553;28;20204;-72
2022/07/12 11:41:40;;;;;;;0.35;0.32;;;;;;;;;;10370969;28;20310;-72
2022/07/12 11:46:41;;;;;;;0.98;0.30;;;;;;;;;;10379744;28;20289;-73
2022/07/12 11:51:42;;;;;;;1.10;0.38;;;;;;;;;;10377340;28;20212;-73
2022/07/12 11:56:43;;;;;;;0.38;0.38;;;;;;;;;;10380565;28;20224;-72
2022/07/12 12:01:44;;;;;;;0.30;0.30;;;;;;;;;;10380488;28;20231;-74
2022/07/12 12:06:45;;;;;;;0.20;0.20;;;;;;;;;;10377281;28;20226;-74
2022/07/12 12:11:46;;;;;;;2.35;0.30;;;;;;;;;;10375032;28;20218;-74
2022/07/12 12:16:47;;;;;;;0.30;0.30;;;;;;;;;;10371273;28;20199;-74
2022/07/12 12:21:48;;;;;;;2.58;0.30;;;;;;;;;;10374257;28;20194;-74
2022/07/12 12:26:49;;;;;;;0.20;0.20;;;;;;;;;;10380267;28;20205;-73
2022/07/12 12:31:57;;;;;;;0.28;0.28;;;;;;;;;;10366274;28;20892;-72
2022/07/12 12:37:03;;;;;;;1.50;0.30;;;;;;;;;;10383474;28;20286;-72
2022/07/12 12:42:05;;;;;;;0.20;0.20;;;;;;;;;;10382811;28;20200;-73
2022/07/12 12:52:28;;;;;;;0.55;0.30;;;;;;;;;;10387880;28;20204;-73
2022/07/12 12:57:29;;;;;;;3.03;0.30;;;;;;;;;;10387096;28;20180;-72
2022/07/12 13:02:31;;;;;;;0.73;0.22;;;;;;;;;;10349235;28;20265;-71
2022/07/12 13:07:32;;;;;;;1.65;0.20;;;;;;;;;;10385652;28;20223;-73
2022/07/12 13:12:34;;;;;;;0.30;0.30;;;;;;;;;;10381982;28;20999;-73
2022/07/12 13:17:35;;;;;;;0.43;0.20;;;;;;;;;;10357805;28;20204;-72
2022/07/12 13:22:37;;;;;;;0.20;0.20;;;;;;;;;;10380781;28;20664;-72
2022/07/12 13:27:39;;;;;;;0.45;0.25;;;;;;;;;;10378353;28;20191;-71
2022/07/12 13:32:40;;;;;;;0.52;0.25;;;;;;;;;;10380419;28;20337;-73
2022/07/12 13:37:43;;;;;;;0.20;0.20;;;;;;;;;;10379852;28;20258;-73
2022/07/12 13:42:45;;;;;;;0.75;0.28;;;;;;;;;;10373404;28;20188;-73
2022/07/12 13:47:46;;;;;;;0.30;0.15;;;;;;;;;;10384290;28;20750;-73
2022/07/12 13:52:48;;;;;;;1.30;1.30;;;;;;;;;;10386470;28;20606;-73
2022/07/12 13:57:49;;;;;;;2.13;0.20;;;;;;;;;;10375315;28;20274;-73
2022/07/12 14:02:50;;;;;;;1.75;0.20;;;;;;;;;;10377089;28;20707;-73
2022/07/12 14:07:51;;;;;;;0.38;0.38;;;;;;;;;;10383391;28;20232;-73
2022/07/12 14:12:52;;;;;;;0.20;0.20;;;;;;;;;;10383924;28;20238;-73
2022/07/12 14:17:53;;;;;;;0.82;0.25;;;;;;;;;;10363989;28;20999;-72
2022/07/12 14:22:56;;;;;;;0.90;0.20;;;;;;;;;;10380391;28;20728;-73
2022/07/12 14:27:57;;;;;;;0.20;0.20;;;;;;;;;;10383051;28;20223;-74
2022/07/12 14:32:58;;;;;;;1.45;0.40;;;;;;;;;;10377935;28;20227;-73
2022/07/12 14:37:59;;;;;;;0.20;0.20;;;;;;;;;;10379280;28;20204;-71
2022/07/12 14:43:00;;;;;;;0.40;0.40;;;;;;;;;;10379231;28;20223;-74
2022/07/12 14:48:01;;;;;;;0.60;0.32;;;;;;;;;;10378487;28;20211;-73
2022/07/12 14:53:02;;;;;;;0.15;0.15;;;;;;;;;;10385457;28;20703;-73
2022/07/12 14:58:04;;;;;;;3.00;0.30;;;;;;;;;;10381135;28;20246;-72
2022/07/12 15:03:05;;;;;;;1.65;0.22;;;;;;;;;;10380333;28;20211;-73
2022/07/12 15:08:06;;;;;;;1.48;0.30;;;;;;;;;;10378772;28;20889;-72
2022/07/12 15:13:07;;;;;;;0.20;0.20;;;;;;;;;;10379860;28;20335;-71
2022/07/12 15:18:08;;;;;;;0.20;0.20;;;;;;;;;;10376250;28;20225;-72
2022/07/12 15:23:09;;;;;;;1.27;0.20;;;;;;;;;;10373749;28;20203;-72
2022/07/12 15:28:10;;;;;;;0.93;0.40;;;;;;;;;;10372162;28;20199;-72
2022/07/12 15:33:11;;;;;;;0.20;0.20;;;;;;;;;;10376435;28;20267;-73
2022/07/12 15:38:13;;;;;;;0.28;0.28;;;;;;;;;;10377074;28;20203;-73
2022/07/12 15:43:14;;;;;;;0.70;0.30;;;;;;;;;;10378905;28;20184;-72
2022/07/12 15:48:15;;;;;;;0.75;0.40;;;;;;;;;;10377982;28;20226;-72
2022/07/12 15:53:28;;;;;;;0.50;0.50;;;;;;;;;;10378069;28;20265;-71
2022/07/12 15:58:30;;;;;;;0.47;0.47;;;;;;;;;;10378520;28;20196;-73
2022/07/12 16:03:32;;;;;;;1.05;0.45;;;;;;;;;;10357256;28;20712;-73
2022/07/12 16:08:34;;;;;;;0.50;0.50;;;;;;;;;;10372828;28;20222;-69
2022/07/12 16:13:35;;;;;;;2.65;0.55;;;;;;;;;;10380689;28;20223;-72
2022/07/12 16:18:37;;;;;;;2.80;0.70;;;;;;;;;;10385277;28;20223;-69
2022/07/12 16:23:38;;;;;;;1.35;0.70;;;;;;;;;;10387234;28;20191;-70
2022/07/12 16:28:39;;;;;;;0.57;0.57;;;;;;;;;;10368989;28;20975;-72
2022/07/12 16:33:41;;;;;;;1.13;0.60;;;;;;;;;;10385219;28;20283;-70
2022/07/12 16:38:43;;;;;;;1.23;0.57;;;;;;;;;;10384994;28;20212;-71
2022/07/12 16:43:44;;;;;;;0.80;0.57;;;;;;;;;;10386344;28;20206;-70
2022/07/12 16:48:45;;;;;;;0.80;0.80;;;;;;;;;;10367327;28;20199;-70
2022/07/12 16:53:46;;;;;;;3.35;0.80;;;;;;;;;;10384194;28;20219;-71
2022/07/12 16:58:47;;;;;;;0.85;0.60;;;;;;;;;;10386599;28;20193;-71
2022/07/12 17:03:49;;;;;;;1.30;0.80;;;;;;;;;;10384775;28;20239;-71
2022/07/12 17:08:50;;;;;;;0.70;0.70;;;;;;;;;;10376799;28;20223;-70
2022/07/12 17:13:51;;;;;;;5.40;0.60;;;;;;;;;;10383239;28;20227;-71
2022/07/12 17:18:53;;;;;;;1.65;0.70;;;;;;;;;;10383300;28;20570;-71
2022/07/12 17:23:54;;;;;;;0.60;0.60;;;;;;;;;;10383495;28;20181;-72
2022/07/12 17:28:55;;;;;;;0.85;0.50;;;;;;;;;;10383216;28;20258;-71
2022/07/12 17:33:56;;;;;;;0.73;0.35;;;;;;;;;;10384771;28;20227;-70
2022/07/12 17:38:57;;;;;;;0.38;0.38;;;;;;;;;;10385422;28;20242;-72
2022/07/12 17:43:58;;;;;;;1.48;0.20;;;;;;;;;;10382795;28;20730;-72
2022/07/12 17:48:59;;;;;;;0.82;0.25;;;;;;;;;;10376627;28;20211;-71
2022/07/12 17:54:00;;;;;;;0.20;0.20;;;;;;;;;;10383657;28;20766;-70
2022/07/12 17:59:01;;;;;;;1.35;0.30;;;;;;;;;;10384442;28;20191;-72
2022/07/12 18:04:02;;;;;;;0.30;0.30;;;;;;;;;;10386967;28;20220;-72
2022/07/12 18:09:04;;;;;;;0.30;0.30;;;;;;;;;;10385423;28;20282;-72
2022/07/12 18:19:25;;;;;;;0.40;0.40;;;;;;;;;;10376726;28;21047;-73
2022/07/12 18:24:27;;;;;;;0.40;0.40;;;;;;;;;;10380987;28;20190;-73
2022/07/12 18:29:28;;;;;;;0.30;0.30;;;;;;;;;;10383454;28;20187;-72
2022/07/12 18:34:29;;;;;;;0.40;0.40;;;;;;;;;;10384520;28;20816;-73
2022/07/12 18:39:30;;;;;;;0.70;0.40;;;;;;;;;;10383763;28;20192;-73
2022/07/12 18:44:32;;;;;;;2.22;0.40;;;;;;;;;;10385340;28;20223;-70
2022/07/12 18:49:33;;;;;;;1.38;0.50;;;;;;;;;;10382296;28;20210;-74
2022/07/12 18:54:34;;;;;;;1.02;0.40;;;;;;;;;;10379296;28;20226;-74
2022/07/12 18:59:36;;;;;;;3.30;0.43;;;;;;;;;;10383808;28;20329;-74
2022/07/12 19:04:37;;;;;;;0.47;0.40;;;;;;;;;;10379993;28;20294;-75
2022/07/12 19:09:38;;;;;;;0.43;0.43;;;;;;;;;;10381553;28;20215;-76
2022/07/12 19:14:39;;;;;;;0.30;0.30;;;;;;;;;;10348859;28;20726;-75
2022/07/12 19:19:41;;;;;;;1.10;0.30;;;;;;;;;;10366462;28;20218;-75
2022/07/12 19:24:42;;;;;;;0.55;0.40;;;;;;;;;;10378380;28;20275;-75
2022/07/12 19:29:43;;;;;;;1.65;0.40;;;;;;;;;;10357924;28;20188;-75
2022/07/12 19:34:44;;;;;;;2.15;0.60;;;;;;;;;;10373968;28;20227;-75
2022/07/12 19:39:45;;;;;;;1.58;0.40;;;;;;;;;;10357620;28;20559;-75
2022/07/12 19:44:46;;;;;;;2.47;0.60;;;;;;;;;;10376859;28;20242;-73
2022/07/12 19:49:47;;;;;;;3.83;0.43;;;;;;;;;;10387655;28;20288;-74
2022/07/12 19:54:48;;;;;;;2.83;0.73;;;;;;;;;;10383683;28;20287;-74
2022/07/12 19:59:51;;;;;;;1.90;0.47;;;;;;;;;;10384841;28;20810;-75
2022/07/12 20:04:53;;;;;;;0.82;0.50;;;;;;;;;;10381901;28;20219;-73
2022/07/12 20:09:54;;;;;;;0.95;0.60;;;;;;;;;;10384187;28;20222;-74
2022/07/12 20:14:55;;;;;;;0.55;0.50;;;;;;;;;;10384763;28;20205;-75
2022/07/12 20:19:57;;;;;;;2.67;0.40;;;;;;;;;;10376399;28;20223;-75
2022/07/12 20:24:58;;;;;;;3.40;0.50;;;;;;;;;;10379996;28;20648;-74
2022/07/12 20:30:00;;;;;;;0.60;0.60;;;;;;;;;;10382201;28;20192;-75
2022/07/12 20:35:01;;;;;;;0.60;0.60;;;;;;;;;;10383389;28;20254;-75
2022/07/12 20:40:03;;;;;;;0.60;0.60;;;;;;;;;;10373161;28;20674;-74
2022/07/12 20:45:04;;;;;;;1.27;0.60;;;;;;;;;;10360541;28;20195;-75
2022/07/12 20:50:05;;;;;;;3.63;0.60;;;;;;;;;;10379538;28;20704;-75
2022/07/12 20:55:07;;;;;;;1.63;0.93;;;;;;;;;;10380314;28;20215;-74
2022/07/12 21:00:09;;;;;;;1.15;0.70;;;;;;;;;;10376409;28;20739;-75
2022/07/12 21:05:10;;;;;;;0.70;0.70;;;;;;;;;;10372397;28;20222;-74
2022/07/12 21:10:11;;;;;;;0.50;0.50;;;;;;;;;;10378577;28;20230;-75
2022/07/12 21:15:12;;;;;;;1.08;0.60;;;;;;;;;;10360320;28;20245;-76
2022/07/12 21:20:13;;;;;;;1.25;0.75;;;;;;;;;;10382238;28;20239;-75
2022/07/12 21:25:14;;;;;;;2.47;0.68;;;;;;;;;;10386863;28;20683;-75
2022/07/12 21:30:15;;;;;;;4.78;0.60;;;;;;;;;;10376781;28;20227;-75
2022/07/12 21:35:17;;;;;;;1.75;0.82;;;;;;;;;;10372581;28;20196;-75
2022/07/12 21:40:18;;;;;;;1.38;1.13;;;;;;;;;;10382846;28;20187;-75
2022/07/12 21:45:20;;;;;;;0.80;0.80;;;;;;;;;;10371742;28;20612;-76
2022/07/12 21:50:21;;;;;;;0.98;0.98;;;;;;;;;;10378151;28;20219;-73
2022/07/12 21:55:22;;;;;;;2.92;1.10;;;;;;;;;;10374500;28;20289;-75
2022/07/12 22:00:23;;;;;;;1.25;1.15;;;;;;;;;;10371128;28;20192;-76
2022/07/12 22:05:24;;;;;;;3.50;1.20;;;;;;;;;;10371943;28;20678;-76
2022/07/12 22:10:25;;;;;;;2.15;1.27;;;;;;;;;;10374856;28;20231;-76
2022/07/12 22:15:26;;;;;;;1.55;1.20;;;;;;;;;;10374453;28;20192;-76
2022/07/12 22:20:27;;;;;;;2.58;1.63;;;;;;;;;;10376006;28;20684;-76
2022/07/12 22:25:29;;;;;;;1.55;1.33;;;;;;;;;;10374727;28;20192;-77
2022/07/12 22:30:30;;;;;;;2.83;1.25;;;;;;;;;;10343623;28;20184;-77
2022/07/12 22:35:31;;;;;;;4.90;2.28;;;;;;;;;;10378865;28;20600;-77
2022/07/12 22:40:32;;;;;;;1.30;1.30;;;;;;;;;;10377533;28;20194;-77
2022/07/12 22:45:33;;;;;;;1.80;1.70;;;;;;;;;;10377164;28;20195;-77
2022/07/12 22:55:55;;;;;;;1.73;1.63;;;;;;;;;;10373120;28;20222;-78
2022/07/12 23:00:56;;;;;;;1.83;1.70;;;;;;;;;;10358831;28;20224;-78
2022/07/12 23:05:57;;;;;;;3.83;1.60;;;;;;;;;;10373400;28;20192;-78
2022/07/12 23:10:58;;;;;;;1.65;1.65;;;;;;;;;;10370582;28;20343;-77
2022/07/12 23:15:59;;;;;;;2.28;2.08;;;;;;;;;;10377022;28;20187;-77
2022/07/12 23:21:00;;;;;;;2.05;1.88;;;;;;;;;;10364070;28;20249;-77
2022/07/12 23:26:05;;;;;;;4.75;2.30;;;;;;;;;;10378472;28;20219;-78
2022/07/12 23:31:06;;;;;;;2.10;2.00;;;;;;;;;;10381326;28;20243;-77
2022/07/12 23:36:07;;;;;;;4.32;1.65;;;;;;;;;;10381265;28;20439;-77
2022/07/12 23:41:08;;;;;;;1.95;1.90;;;;;;;;;;10355464;28;20194;-78
2022/07/12 23:46:10;;;;;;;4.97;2.10;;;;;;;;;;10372795;28;20614;-77
2022/07/12 23:51:11;;;;;;;2.08;1.95;;;;;;;;;;10377412;28;20278;-77
2022/07/12 23:56:12;;;;;;;2.10;1.90;;;;;;;;;;10374198;28;20183;-77
